Time;durP1;ratioP1;P1;durP2;ratioP2;P2;SDS_P1;SDS_P2;PMS_P1;PMS_P2;Temp;Humidity;BMP_temperature;BMP_pressure;BME280_temperature;BME280_humidity;BME280_pressure;Samples;Min_cycle;Max_cycle;Signal;HPM_P1;HPM_P2
2022/11/01 00:00:42;;;;;;;13.88;2.38;;;;;;;10.68;100.00;98304.59;4977009;28;20038;-81
2022/11/01 00:03:07;;;;;;;20.20;2.78;;;;;;;10.84;100.00;98313.94;4968499;28;20470;-78
2022/11/01 00:05:35;;;;;;;14.02;3.45;;;;;;;10.86;100.00;98341.75;4936965;28;20082;-76
2022/11/01 00:08:01;;;;;;;14.02;1.83;;;;;;;10.90;100.00;98315.41;4956228;28;20042;-78
2022/11/01 00:10:26;;;;;;;13.82;2.05;;;;;;;10.88;100.00;98303.16;4966630;28;20051;-77
2022/11/01 00:12:53;;;;;;;21.30;2.47;;;;;;;10.87;100.00;98318.78;4955478;28;20766;-79
2022/11/01 00:15:19;;;;;;;15.68;2.30;;;;;;;10.98;100.00;98344.69;4981160;28;20039;-78
2022/11/01 00:17:44;;;;;;;18.48;1.70;;;;;;;11.03;100.00;98381.22;4976817;28;20027;-79
2022/11/01 00:20:17;;;;;;;13.15;2.10;;;;;;;10.86;100.00;98339.03;4985087;28;20016;-79
2022/11/01 00:23:00;;;;;;;5.97;1.25;;;;;;;11.03;100.00;98373.81;4966432;28;20019;-78
2022/11/01 00:25:44;;;;;;;7.10;1.80;;;;;;;10.96;100.00;98378.94;4948407;28;20083;-80
2022/11/01 00:28:10;;;;;;;6.60;1.30;;;;;;;10.88;100.00;98386.03;4957722;29;20032;-79
2022/11/01 00:30:36;;;;;;;4.55;0.60;;;;;;;10.90;100.00;98413.03;4938044;28;20040;-76
2022/11/01 00:33:35;;;;;;;;;;;;;;;;;;;;;
2022/11/01 00:36:08;;;;;;;0.30;0.30;;;;;;;10.76;100.00;98481.50;4978707;28;20072;-76
2022/11/01 00:38:41;;;;;;;1.67;0.38;;;;;;;10.62;100.00;98517.94;4964330;28;20039;-77
2022/11/01 00:41:07;;;;;;;3.22;0.57;;;;;;;10.55;100.00;98514.84;4942840;28;20447;-77
2022/11/01 00:43:35;;;;;;;4.03;0.30;;;;;;;10.45;100.00;98543.25;4966381;28;20019;-78
2022/11/01 00:49:38;;;;;;;;;;;;;;;;;;;;;
2022/11/01 00:52:09;;;;;;;2.30;0.30;;;;;;;10.15;100.00;98593.91;4957831;29;20062;-76
2022/11/01 00:54:58;;;;;;;;;;;;;;;;;;;;;
2022/11/01 00:57:31;;;;;;;1.60;0.40;;;;;;;10.10;100.00;98618.59;4968738;28;20092;-74
2022/11/01 01:07:55;;;;;;;2.42;0.40;;;;;;;10.36;100.00;98676.22;4975859;28;20031;-78
2022/11/01 01:10:23;;;;;;;3.20;0.70;;;;;;;10.42;100.00;98715.19;4927468;29;20039;-78
2022/11/01 01:12:52;;;;;;;2.72;0.63;;;;;;;10.41;100.00;98708.09;4949773;29;20039;-80
2022/11/01 01:15:27;;;;;;;5.47;0.68;;;;;;;10.28;100.00;98713.25;4934225;29;20067;-81
2022/11/01 01:17:58;;;;;;;1.90;0.40;;;;;;;10.40;100.00;98737.34;4951208;28;20038;-82
2022/11/01 01:20:37;;;;;;;0.70;0.15;;;;;;;10.38;100.00;98745.06;4928548;29;20122;-81
2022/11/01 01:23:31;;;;;;;0.80;0.20;;;;;;;10.47;100.00;98750.63;4949953;28;20011;-81
2022/11/01 01:26:21;;;;;;;0.52;0.20;;;;;;;10.49;100.00;98811.22;4956317;28;20074;-80
2022/11/01 01:36:12;;;;;;;1.42;0.25;;;;;;;10.35;100.00;98838.53;4948493;29;20138;-81
2022/11/01 01:38:38;;;;;;;3.22;0.30;;;;;;;10.30;100.00;98847.63;4948790;29;20015;-80
2022/11/01 01:43:52;;;;;;;0.93;0.20;;;;;;;10.13;100.00;98891.13;4952126;28;20039;-81
2022/11/01 01:46:27;;;;;;;;;;;;;;;;;;;;;
2022/11/01 01:49:01;;;;;;;2.33;0.52;;;;;;;9.90;100.00;98888.25;4947216;29;20044;-80
2022/11/01 01:51:43;;;;;;;0.65;0.40;;;;;;;10.01;100.00;98937.22;4948574;28;20095;-79
2022/11/01 01:54:30;;;;;;;3.95;0.77;;;;;;;9.96;100.00;98985.34;4932295;29;20031;-80
2022/11/01 01:58:03;;;;;;;5.63;0.90;;;;;;;9.88;100.00;98923.22;4961777;28;20038;-79
2022/11/01 02:00:39;;;;;;;;;;;;;;;;;;;;;
2022/11/01 02:03:13;;;;;;;10.60;1.65;;;;;;;9.47;100.00;98945.66;4953615;29;20054;-81
2022/11/01 02:05:53;;;;;;;10.80;1.63;;;;;;;9.52;100.00;98969.34;4947116;29;20067;-80
2022/11/01 02:12:05;;;;;;;6.25;1.33;;;;;;;9.06;100.00;98940.78;4964616;28;20046;-78
2022/11/01 02:15:12;;;;;;;;;;;;;;;;;;;;;
2022/11/01 02:22:51;;;;;;;;;;;;;;;;;;;;;
2022/11/01 02:29:03;;;;;;;11.25;1.98;;;;;;;9.31;100.00;99017.94;4971779;28;20047;-76
2022/11/01 02:32:20;;;;;;;10.75;2.00;;;;;;;9.34;100.00;99050.06;4972617;28;20500;-76
2022/11/01 02:38:53;;;;;;;12.98;1.98;;;;;;;9.36;100.00;99091.50;4904965;28;20052;-76
2022/11/01 02:41:26;;;;;;;14.75;1.75;;;;;;;9.16;100.00;99068.03;4963497;28;20030;-77
2022/11/01 02:43:54;;;;;;;14.60;1.63;;;;;;;9.32;100.00;99106.84;4957529;28;20036;-77
2022/11/01 02:49:08;;;;;;;9.18;2.17;;;;;;;9.34;100.00;99121.00;4970765;28;20071;-77
2022/11/01 02:51:36;;;;;;;7.30;1.38;;;;;;;9.18;100.00;99134.78;4967596;28;20023;-77
2022/11/01 02:54:11;;;;;;;21.60;2.40;;;;;;;9.26;100.00;99156.00;4966903;28;20023;-79
2022/11/01 02:56:48;;;;;;;12.10;1.98;;;;;;;9.24;100.00;99160.94;4967259;28;20034;-76
2022/11/01 02:59:28;;;;;;;11.65;1.67;;;;;;;9.17;100.00;99143.25;4965692;28;20433;-77
2022/11/01 03:02:04;;;;;;;13.45;1.88;;;;;;;9.28;100.00;99172.06;4967376;28;20035;-75
2022/11/01 03:04:30;;;;;;;10.93;1.63;;;;;;;9.26;100.00;99168.84;4964483;28;20389;-76
2022/11/01 03:07:02;;;;;;;12.65;1.73;;;;;;;9.35;100.00;99188.13;4965754;28;20019;-75
2022/11/01 03:09:31;;;;;;;13.00;1.83;;;;;;;9.39;100.00;99183.72;4970494;28;20164;-75
2022/11/01 03:12:05;;;;;;;14.63;1.58;;;;;;;9.48;100.00;99179.25;4962635;28;20031;-75
2022/11/01 03:14:38;;;;;;;9.52;1.67;;;;;;;9.46;100.00;99177.91;4963118;28;20125;-75
2022/11/01 03:21:14;;;;;;;9.82;1.80;;;;;;;9.78;100.00;99210.03;4959255;28;20504;-76
2022/11/01 03:24:00;;;;;;;;;;;;;;;;;;;;;
2022/11/01 03:26:27;;;;;;;13.15;1.73;;;;;;;9.95;100.00;99224.03;4965912;28;20102;-75
2022/11/01 03:29:17;;;;;;;19.65;2.67;;;;;;;9.88;100.00;99198.97;4964106;28;20126;-76
2022/11/01 03:31:54;;;;;;;;;;;;;;;;;;;;;
2022/11/01 03:34:21;;;;;;;15.02;2.03;;;;;;;9.96;100.00;99225.66;4966268;28;20206;-75
2022/11/01 03:37:07;;;;;;;12.07;1.70;;;;;;;9.83;100.00;99199.06;4948688;28;20022;-75
2022/11/01 03:40:20;;;;;;;12.48;1.60;;;;;;;9.92;100.00;99241.00;4965321;28;20023;-77
2022/11/01 03:42:50;;;;;;;12.82;2.10;;;;;;;9.79;100.00;99209.72;4960749;28;20035;-75
2022/11/01 03:45:59;;;;;;;12.90;2.35;;;;;;;9.87;100.00;99238.34;4960935;28;20103;-75
2022/11/01 03:48:27;;;;;;;10.30;2.00;;;;;;;9.76;100.00;99225.91;4973598;28;20126;-75
2022/11/01 03:50:55;;;;;;;8.52;1.67;;;;;;;9.89;100.00;99247.03;4949544;29;20031;-75
2022/11/01 03:53:23;;;;;;;6.70;1.92;;;;;;;9.89;100.00;99229.84;4948984;29;20083;-76
2022/11/01 03:55:51;;;;;;;11.70;1.85;;;;;;;9.91;100.00;99228.44;4963611;28;20046;-76
2022/11/01 03:58:19;;;;;;;19.70;2.63;;;;;;;9.98;100.00;99243.69;4965787;28;20031;-75
2022/11/01 04:00:55;;;;;;;;;;;;;;;;;;;;;
2022/11/01 04:03:21;;;;;;;11.07;1.80;;;;;;;10.09;100.00;99259.66;4965213;28;20094;-75
2022/11/01 04:05:46;;;;;;;21.13;2.10;;;;;;;10.11;100.00;99259.38;4960164;28;20090;-75
2022/11/01 04:08:17;;;;;;;15.82;2.47;;;;;;;10.10;100.00;99253.09;4948734;29;20118;-75
2022/11/01 04:10:43;;;;;;;12.82;1.60;;;;;;;10.31;100.00;99261.03;4957331;28;20083;-75
2022/11/01 04:13:09;;;;;;;19.48;2.15;;;;;;;10.53;100.00;99271.44;4959912;28;20023;-77
2022/11/01 04:29:13;;;;;;;;;;;;;;;;;;;;;
2022/11/01 04:31:48;;;;;;;25.10;3.08;;;;;;;11.08;100.00;99260.00;4961079;28;20115;-75
2022/11/01 04:34:40;;;;;;;;;;;;;;;11.33;100.00;99302.53;4966723;28;20037;-76
2022/11/01 04:37:06;;;;;;;17.20;2.47;;;;;;;11.34;100.00;99286.91;4952704;28;19954;-75
2022/11/01 04:39:51;;;;;;;;;;;;;;;;;;;;;
2022/11/01 04:42:19;;;;;;;12.02;2.13;;;;;;;11.37;100.00;99288.25;4963916;28;20057;-74
2022/11/01 04:44:46;;;;;;;12.90;2.47;;;;;;;11.34;100.00;99306.88;4962023;28;20039;-76
2022/11/01 04:47:12;;;;;;;19.23;2.83;;;;;;;11.37;100.00;99291.78;4936613;28;20023;-74
2022/11/01 04:49:37;;;;;;;28.70;3.13;;;;;;;11.39;100.00;99305.19;4952391;28;20141;-75
2022/11/01 04:52:05;;;;;;;13.88;2.15;;;;;;;11.34;100.00;99279.50;4943816;28;20031;-75
2022/11/01 04:54:32;;;;;;;23.33;2.50;;;;;;;11.29;100.00;99287.81;4963074;28;20134;-74
2022/11/01 04:57:00;;;;;;;18.30;1.92;;;;;;;11.18;100.00;99292.66;4952661;29;20032;-74
2022/11/01 04:59:28;;;;;;;13.55;2.50;;;;;;;11.07;100.00;99284.88;4961866;29;20027;-75
2022/11/01 05:01:58;;;;;;;20.40;2.85;;;;;;;11.13;100.00;99294.66;4971935;28;20027;-74
2022/11/01 05:04:26;;;;;;;23.55;2.47;;;;;;;11.21;100.00;99302.16;4951234;28;20173;-75
2022/11/01 05:06:57;;;;;;;25.75;3.75;;;;;;;11.29;100.00;99303.44;4950793;29;20023;-75
2022/11/01 05:12:19;;;;;;;25.08;2.55;;;;;;;11.45;100.00;99287.59;4971091;28;20038;-75
2022/11/01 05:14:44;;;;;;;15.98;2.63;;;;;;;11.66;100.00;99297.03;4961453;28;20027;-74
2022/11/01 05:17:10;;;;;;;15.48;3.17;;;;;;;11.74;100.00;99305.69;4958013;28;20472;-74
2022/11/01 05:19:38;;;;;;;21.98;3.33;;;;;;;11.79;100.00;99294.66;4971219;28;20059;-75
2022/11/01 05:22:04;;;;;;;25.95;2.90;;;;;;;11.90;100.00;99312.53;4949465;29;20636;-76
2022/11/01 05:24:34;;;;;;;25.85;2.95;;;;;;;12.02;100.00;99321.09;4951792;28;20054;-74
2022/11/01 05:26:59;;;;;;;20.70;2.10;;;;;;;12.11;100.00;99312.19;4947757;28;20035;-75
2022/11/01 05:29:26;;;;;;;29.45;3.08;;;;;;;12.21;100.00;99309.25;4948623;29;20493;-75
2022/11/01 05:31:55;;;;;;;35.15;4.28;;;;;;;12.27;100.00;99315.44;4965310;28;20031;-74
2022/11/01 05:34:20;;;;;;;21.23;3.15;;;;;;;12.27;100.00;99315.44;4963492;28;20023;-74
2022/11/01 05:36:46;;;;;;;26.50;3.35;;;;;;;12.34;100.00;99333.09;4937294;28;20028;-74
2022/11/01 05:39:14;;;;;;;24.13;3.35;;;;;;;12.33;100.00;99336.94;4934661;29;20501;-75
2022/11/01 05:41:50;;;;;;;22.50;3.08;;;;;;;12.26;100.00;99335.72;4948374;28;20043;-74
2022/11/01 05:45:19;;;;;;;24.77;3.70;;;;;;;12.26;100.00;99314.59;4949048;29;20035;-75
2022/11/01 05:47:34;;;;;;;22.45;3.05;;;;;;;12.37;100.00;99323.47;4951786;28;20122;-73
2022/11/01 05:50:01;;;;;;;28.27;3.72;;;;;;;12.34;100.00;99338.59;4965418;28;20109;-75
2022/11/01 05:52:48;;;;;;;22.98;3.28;;;;;;;12.42;100.00;99322.53;4944469;29;20028;-73
2022/11/01 05:56:00;;;;;;;;;;;;;;;;;;;;;
2022/11/01 05:58:37;;;;;;;;;;;;;;;;;;;;;
2022/11/01 06:01:38;;;;;;;28.48;3.92;;;;;;;11.98;100.00;99305.56;4970382;28;20040;-76
2022/11/01 06:04:27;;;;;;;28.23;4.15;;;;;;;11.86;100.00;99298.63;4953258;28;20031;-74
2022/11/01 06:10:46;;;;;;;41.72;3.92;;;;;;;11.83;100.00;99301.16;4893975;29;20051;-76
2022/11/01 06:13:12;;;;;;;19.05;3.58;;;;;;;11.79;100.00;99294.66;4923174;29;20127;-75
2022/11/01 06:15:38;;;;;;;25.10;3.63;;;;;;;11.81;100.00;99301.47;4935063;28;20071;-74
2022/11/01 06:18:06;;;;;;;26.08;3.55;;;;;;;11.74;100.00;99292.00;4944524;29;20039;-74
2022/11/01 06:20:49;;;;;;;23.13;3.75;;;;;;;11.65;100.00;99279.00;4963099;28;20050;-75
2022/11/01 06:23:22;;;;;;;23.23;3.17;;;;;;;11.82;100.00;99357.03;4964232;28;20031;-74
2022/11/01 06:26:01;;;;;;;25.10;3.25;;;;;;;11.70;100.00;99325.47;4964661;28;20031;-74
2022/11/01 06:28:49;;;;;;;23.58;3.45;;;;;;;11.81;100.00;99298.72;4963762;28;20051;-73
2022/11/01 06:31:17;;;;;;;26.58;3.33;;;;;;;11.88;100.00;99303.78;4935984;28;20023;-75
2022/11/01 06:34:00;;;;;;;25.65;5.10;;;;;;;11.86;100.00;99284.13;4967046;28;20035;-75
2022/11/01 06:36:28;;;;;;;26.35;3.47;;;;;;;11.80;100.00;99307.25;4970728;28;20102;-75
2022/11/01 06:39:14;;;;;;;19.20;3.25;;;;;;;11.67;100.00;99303.34;4962674;28;20458;-75
2022/11/01 06:41:44;;;;;;;22.63;3.03;;;;;;;11.61;100.00;99313.59;4965323;28;20083;-76
2022/11/01 06:44:10;;;;;;;22.80;4.40;;;;;;;11.54;100.00;99318.63;4947500;29;20027;-76
2022/11/01 06:46:35;;;;;;;18.25;3.10;;;;;;;11.45;100.00;99295.78;4947955;28;20036;-75
2022/11/01 06:49:05;;;;;;;22.08;3.70;;;;;;;11.44;100.00;99299.63;4965471;28;20035;-76
2022/11/01 06:51:31;;;;;;;14.60;2.67;;;;;;;11.41;100.00;99316.66;4949522;28;20031;-75
2022/11/01 06:53:56;;;;;;;23.05;3.35;;;;;;;11.44;100.00;99318.78;4966797;28;20026;-75
2022/11/01 06:56:22;;;;;;;19.75;2.72;;;;;;;11.46;100.00;99352.16;4960259;28;20087;-74
2022/11/01 06:58:48;;;;;;;16.88;2.47;;;;;;;11.43;100.00;99319.91;4958277;29;20550;-76
2022/11/01 07:01:14;;;;;;;15.95;2.55;;;;;;;11.47;100.00;99338.16;4964743;28;20034;-76
2022/11/01 07:03:39;;;;;;;22.27;3.13;;;;;;;11.43;100.00;99325.38;4963275;28;20031;-76
2022/11/01 07:06:05;;;;;;;14.63;2.33;;;;;;;11.41;100.00;99324.88;4960126;28;20035;-75
2022/11/01 07:08:35;;;;;;;13.20;2.25;;;;;;;11.38;100.00;99339.97;4948519;28;20050;-75
2022/11/01 07:11:01;;;;;;;18.40;2.20;;;;;;;11.34;100.00;99334.25;4960757;28;20038;-75
2022/11/01 07:13:32;;;;;;;8.32;1.30;;;;;;;11.26;100.00;99325.94;4960870;28;20038;-75
2022/11/01 07:16:00;;;;;;;6.97;1.42;;;;;;;11.24;100.00;99322.66;4945095;28;20042;-75
2022/11/01 07:18:29;;;;;;;20.50;2.58;;;;;;;11.21;100.00;99307.66;4951955;28;20378;-75
2022/11/01 07:21:03;;;;;;;9.68;1.70;;;;;;;11.17;100.00;99301.97;4960900;28;20026;-76
2022/11/01 07:23:31;;;;;;;9.18;1.50;;;;;;;11.13;100.00;99294.66;4951866;28;20385;-76
2022/11/01 07:25:57;;;;;;;7.63;1.60;;;;;;;11.18;100.00;99309.06;4964400;28;20034;-75
2022/11/01 07:28:23;;;;;;;7.75;1.70;;;;;;;11.23;100.00;99316.38;4953817;29;20478;-76
2022/11/01 07:30:49;;;;;;;11.07;1.98;;;;;;;11.29;100.00;99309.72;4948911;28;20039;-76
2022/11/01 07:33:15;;;;;;;12.07;2.33;;;;;;;11.34;100.00;99311.56;4948410;29;20733;-76
2022/11/01 07:35:49;;;;;;;13.77;2.40;;;;;;;11.35;100.00;99300.31;4962450;28;20122;-77
2022/11/01 07:38:15;;;;;;;;;;;;;;;11.46;100.00;99309.19;4964782;28;20059;-77
2022/11/01 07:40:43;;;;;;;21.65;2.45;;;;;;;11.47;100.00;99288.88;4964515;28;19903;-77
2022/11/01 07:43:13;;;;;;;19.75;3.33;;;;;;;11.54;100.00;99280.28;4986735;28;20041;-76
2022/11/01 07:45:49;;;;;;;18.95;3.20;;;;;;;11.63;100.00;99281.22;4966113;28;20392;-78
2022/11/01 07:48:17;;;;;;;23.67;3.45;;;;;;;11.64;100.00;99277.38;4961859;28;20082;-77
2022/11/01 07:51:09;;;;;;;23.75;3.28;;;;;;;11.72;100.00;99278.59;4965749;28;20037;-78
2022/11/01 07:53:34;;;;;;;21.60;3.08;;;;;;;11.73;100.00;99317.78;4947324;29;20075;-78
2022/11/01 07:56:21;;;;;;;26.85;3.50;;;;;;;11.64;100.00;99315.72;4948233;28;20036;-76
2022/11/01 07:58:50;;;;;;;16.70;2.55;;;;;;;11.72;100.00;99327.09;4960231;28;20341;-76
2022/11/01 08:01:15;;;;;;;20.75;3.10;;;;;;;11.67;100.00;99303.34;4974891;28;20160;-77
2022/11/01 08:03:44;;;;;;;15.02;2.42;;;;;;;11.76;100.00;99306.22;4940083;29;20054;-76
2022/11/01 08:06:09;;;;;;;22.45;2.75;;;;;;;11.82;100.00;99326.91;4946601;29;20423;-77
2022/11/01 08:08:45;;;;;;;17.35;2.53;;;;;;;11.84;100.00;99324.69;4954303;28;20043;-74
2022/11/01 08:11:16;;;;;;;11.95;2.13;;;;;;;11.81;100.00;99325.28;4923996;28;20040;-75
2022/11/01 08:13:41;;;;;;;14.95;1.85;;;;;;;11.86;100.00;99344.38;4962862;28;20031;-76
2022/11/01 08:16:07;;;;;;;5.30;1.48;;;;;;;11.81;100.00;99308.84;4948077;29;20058;-76
2022/11/01 08:18:38;;;;;;;5.90;1.73;;;;;;;11.83;100.00;99334.03;4954621;28;20071;-76
2022/11/01 08:21:03;;;;;;;9.18;1.95;;;;;;;11.80;100.00;99342.84;4948138;29;20062;-74
2022/11/01 08:23:31;;;;;;;7.95;1.45;;;;;;;11.79;100.00;99343.97;4945189;29;20510;-75
2022/11/01 08:25:57;;;;;;;7.40;1.88;;;;;;;11.58;100.00;99338.81;4962091;28;20027;-74
2022/11/01 08:28:23;;;;;;;7.50;1.35;;;;;;;11.58;100.00;99368.94;4951708;28;20033;-74
2022/11/01 08:30:51;;;;;;;4.25;1.02;;;;;;;11.56;100.00;99346.50;4962574;28;20018;-74
2022/11/01 08:33:16;;;;;;;9.65;1.15;;;;;;;11.64;100.00;99367.75;4961756;28;20087;-74
2022/11/01 08:35:43;;;;;;;10.63;1.17;;;;;;;11.63;100.00;99382.53;4950254;28;20043;-75
2022/11/01 08:38:08;;;;;;;7.78;1.20;;;;;;;11.50;100.00;99369.63;4956471;28;20091;-74
2022/11/01 08:40:34;;;;;;;6.93;0.80;;;;;;;11.51;100.00;99371.25;4965099;28;20527;-74
2022/11/01 08:43:02;;;;;;;4.72;1.00;;;;;;;11.52;100.00;99401.06;4963725;28;20023;-75
2022/11/01 08:45:27;;;;;;;8.55;1.15;;;;;;;11.52;100.00;99416.66;4963554;28;20023;-74
2022/11/01 08:48:02;;;;;;;5.20;0.75;;;;;;;11.58;100.00;99434.66;4951058;28;20022;-73
2022/11/01 08:50:27;;;;;;;;;;;;;;;11.61;100.00;99409.41;4978070;28;20473;-74
2022/11/01 08:52:52;;;;;;;6.53;0.75;;;;;;;11.69;100.00;99416.94;4978656;28;19914;-72
2022/11/01 08:55:21;;;;;;;6.40;1.45;;;;;;;12.10;100.00;99403.72;4961569;28;20045;-74
2022/11/01 08:57:48;;;;;;;3.85;0.70;;;;;;;12.56;100.00;99408.34;4957041;28;20074;-73
2022/11/01 09:00:15;;;;;;;11.70;1.55;;;;;;;15.13;100.00;99421.38;4943264;28;20126;-74
2022/11/01 09:02:41;;;;;;;4.55;0.85;;;;;;;16.60;100.00;99414.44;4956140;28;20122;-75
2022/11/01 09:05:07;;;;;;;9.57;1.13;;;;;;;16.00;100.00;99415.09;4965791;28;20050;-75
2022/11/01 09:07:34;;;;;;;6.07;1.38;;;;;;;15.97;100.00;99434.22;4956746;28;20031;-73
2022/11/01 09:09:59;;;;;;;8.63;1.42;;;;;;;17.67;100.00;99436.38;4988536;28;20046;-74
2022/11/01 09:12:28;;;;;;;7.07;0.98;;;;;;;18.19;100.00;99449.78;4953626;28;20035;-72
2022/11/01 09:14:53;;;;;;;10.40;3.33;;;;;;;19.07;100.00;99470.94;4975283;28;20089;-74
2022/11/01 09:17:22;;;;;;;7.00;1.13;;;;;;;20.05;99.40;99434.69;4989574;28;21919;-74
2022/11/01 09:19:47;;;;;;;14.52;2.47;;;;;;;20.75;85.94;99429.78;4981564;28;20496;-73
2022/11/01 09:22:13;;;;;;;9.55;1.10;;;;;;;21.24;85.56;99442.44;4980153;28;20033;-73
2022/11/01 09:24:38;;;;;;;13.90;1.80;;;;;;;22.07;82.95;99447.81;4981147;28;20026;-73
2022/11/01 09:27:06;;;;;;;12.38;2.85;;;;;;;22.48;77.86;99455.78;4984184;28;20022;-74
2022/11/01 09:29:32;;;;;;;8.73;1.48;;;;;;;22.58;78.67;99462.72;4993363;28;20026;-74
2022/11/01 09:32:00;;;;;;;19.35;2.30;;;;;;;23.04;74.21;99482.19;4999042;28;20105;-74
2022/11/01 09:34:25;;;;;;;12.95;1.52;;;;;;;22.84;75.51;99473.91;4976778;28;20022;-73
2022/11/01 09:36:51;;;;;;;12.30;1.50;;;;;;;22.78;76.59;99469.00;4950479;28;20047;-74
2022/11/01 09:39:20;;;;;;;8.70;1.48;;;;;;;22.70;75.79;99454.16;4981289;28;20047;-73
2022/11/01 09:42:00;;;;;;;9.20;1.55;;;;;;;23.63;78.72;99479.13;4959929;28;20404;-74
2022/11/01 09:44:33;;;;;;;7.47;1.48;;;;;;;23.99;69.33;99479.59;4994912;28;20082;-74
2022/11/01 09:47:15;;;;;;;10.90;1.90;;;;;;;24.56;74.11;99480.25;4995856;28;20101;-73
2022/11/01 09:49:45;;;;;;;12.80;1.52;;;;;;;24.74;66.83;99507.59;4977990;28;20041;-74
2022/11/01 09:52:21;;;;;;;9.05;1.80;;;;;;;23.81;70.29;99485.75;4973098;28;20026;-73
2022/11/01 09:55:02;;;;;;;12.68;1.92;;;;;;;24.51;72.63;99496.56;4998281;28;20045;-71
2022/11/01 09:57:38;;;;;;;13.27;1.73;;;;;;;24.45;64.81;99496.09;4990395;28;20114;-73
2022/11/01 10:00:12;;;;;;;11.23;2.38;;;;;;;21.41;71.72;99488.53;4980110;28;20037;-72
2022/11/01 10:03:04;;;;;;;9.80;1.38;;;;;;;19.31;75.65;99482.00;4981789;28;20026;-74
2022/11/01 10:05:47;;;;;;;13.80;2.05;;;;;;;18.48;82.21;99479.25;4990233;28;20084;-73
2022/11/01 10:08:19;;;;;;;8.75;2.00;;;;;;;17.65;83.02;99474.63;4974825;28;20045;-73
2022/11/01 10:11:06;;;;;;;10.40;1.52;;;;;;;18.55;88.04;99473.16;4980546;28;20393;-75
2022/11/01 10:14:06;;;;;;;7.82;1.63;;;;;;;19.84;81.91;99486.78;4975787;28;20058;-74
2022/11/01 10:16:47;;;;;;;;;;;;;;;;;;;;;
2022/11/01 10:19:31;;;;;;;8.82;1.80;;;;;;;20.78;77.51;99478.25;4992663;28;20089;-73
2022/11/01 10:22:02;;;;;;;18.83;1.92;;;;;;;20.15;73.58;99501.94;4989900;28;20059;-73
2022/11/01 10:24:41;;;;;;;18.35;2.95;;;;;;;22.96;65.02;99494.41;4974624;28;20484;-73
2022/11/01 10:27:39;;;;;;;12.40;1.58;;;;;;;25.04;66.40;99509.47;4993938;28;20022;-73
2022/11/01 10:30:14;;;;;;;16.73;2.00;;;;;;;26.13;57.32;99506.97;4968349;28;20119;-72
2022/11/01 10:33:10;;;;;;;10.23;2.22;;;;;;;26.73;60.03;99496.34;4979759;28;20121;-75
2022/11/01 10:35:50;;;;;;;11.75;1.60;;;;;;;27.04;56.30;99510.00;4979179;28;20666;-72
2022/11/01 10:38:18;;;;;;;12.00;2.55;;;;;;;25.13;59.14;99501.56;4988646;28;20484;-73
2022/11/01 10:40:54;;;;;;;11.35;1.67;;;;;;;22.46;64.67;99497.13;4978817;28;20102;-74
2022/11/01 10:43:23;;;;;;;10.68;1.58;;;;;;;20.42;68.34;99489.22;4979651;28;20353;-72
2022/11/01 10:45:52;;;;;;;10.82;1.52;;;;;;;18.62;75.33;99490.03;4992394;28;20027;-74
2022/11/01 10:48:37;;;;;;;;;;;;;;;;;;;;;
2022/11/01 10:51:06;;;;;;;12.77;1.88;;;;;;;17.31;77.21;99487.53;4996020;28;20105;-72
2022/11/01 10:53:39;;;;;;;14.15;2.08;;;;;;;18.28;76.04;99478.19;4981934;28;20026;-74
2022/11/01 10:56:08;;;;;;;11.47;2.13;;;;;;;18.81;70.82;99502.53;4985279;28;20030;-74
2022/11/01 10:58:42;;;;;;;16.42;1.92;;;;;;;18.05;71.95;99499.06;4969374;28;20035;-71
2022/11/01 11:01:21;;;;;;;9.27;1.63;;;;;;;17.20;76.23;99465.81;4996586;28;20026;-74
2022/11/01 11:03:48;;;;;;;9.93;2.20;;;;;;;16.77;77.37;99469.56;4996029;28;20041;-73
2022/11/01 11:06:14;;;;;;;17.20;1.58;;;;;;;16.60;78.92;99453.06;4978917;28;20082;-73
2022/11/01 11:08:43;;;;;;;9.35;1.55;;;;;;;16.26;80.34;99452.03;4963996;28;20034;-72
2022/11/01 11:11:15;;;;;;;9.27;1.58;;;;;;;16.30;80.06;99462.09;4979174;28;20018;-75
2022/11/01 11:13:52;;;;;;;8.38;1.67;;;;;;;15.86;80.32;99478.69;4978233;28;20025;-74
2022/11/01 11:16:37;;;;;;;13.98;2.67;;;;;;;14.65;87.34;99477.22;4978742;28;20465;-73
2022/11/01 11:19:18;;;;;;;10.00;1.38;;;;;;;13.21;93.29;99524.50;4993773;28;20027;-74
2022/11/01 11:21:45;;;;;;;4.55;0.90;;;;;;;12.20;97.02;99524.94;4978938;28;20068;-75
2022/11/01 11:24:18;;;;;;;2.13;0.52;;;;;;;11.46;99.34;99521.88;4983342;28;20030;-76
2022/11/01 11:26:47;;;;;;;3.17;0.73;;;;;;;11.10;100.00;99536.81;4984104;28;20026;-76
2022/11/01 11:29:34;;;;;;;2.38;0.50;;;;;;;10.83;100.00;99526.44;4998007;28;20381;-75
2022/11/01 11:32:01;;;;;;;0.65;0.43;;;;;;;10.62;100.00;99532.13;4980011;28;20029;-75
2022/11/01 11:34:35;;;;;;;0.93;0.22;;;;;;;10.45;100.00;99516.16;5001033;28;20032;-74
2022/11/01 11:37:02;;;;;;;;;;;;;;;10.29;100.00;99514.63;4993757;28;20027;-75
2022/11/01 11:39:35;;;;;;;2.40;0.63;;;;;;;10.16;100.00;99490.69;4997699;28;19968;-74
2022/11/01 11:42:19;;;;;;;1.27;0.50;;;;;;;10.06;100.00;99524.34;4979269;28;20037;-74
2022/11/01 11:45:20;;;;;;;4.95;0.63;;;;;;;9.98;100.00;99530.44;4983910;28;20034;-75
2022/11/01 11:47:46;;;;;;;2.78;0.57;;;;;;;9.89;100.00;99525.56;4960726;28;20034;-76
2022/11/01 11:50:25;;;;;;;7.25;0.90;;;;;;;9.78;100.00;99545.84;4971415;28;20027;-74
2022/11/01 11:52:57;;;;;;;3.00;0.60;;;;;;;9.69;100.00;99553.00;4998074;28;20057;-74
2022/11/01 11:55:40;;;;;;;2.63;0.60;;;;;;;9.68;100.00;99535.00;4974812;28;20031;-74
2022/11/01 11:58:17;;;;;;;4.32;0.80;;;;;;;9.63;100.00;99515.91;4993667;28;20151;-74
2022/11/01 12:00:47;;;;;;;4.53;0.90;;;;;;;9.94;100.00;99539.22;4994779;28;20030;-76
2022/11/01 12:03:16;;;;;;;8.57;1.17;;;;;;;10.37;100.00;99518.72;4975900;28;20422;-79
2022/11/01 12:06:21;;;;;;;7.47;0.60;;;;;;;11.92;100.00;99523.19;4976934;28;20175;-76
2022/11/01 12:08:55;;;;;;;1.70;0.70;;;;;;;12.83;100.00;99508.22;4960146;28;20026;-75
2022/11/01 12:11:35;;;;;;;6.70;1.35;;;;;;;12.53;100.00;99510.44;4980365;28;20053;-75
2022/11/01 12:14:16;;;;;;;8.07;0.88;;;;;;;14.01;100.00;99486.50;4977089;28;20037;-75
2022/11/01 12:16:44;;;;;;;8.05;1.30;;;;;;;18.24;85.90;99491.06;4973065;28;20507;-74
2022/11/01 12:19:28;;;;;;;5.35;0.98;;;;;;;21.97;74.29;99510.44;4958965;28;20030;-74
2022/11/01 12:21:57;;;;;;;3.65;0.77;;;;;;;24.31;63.71;99526.66;4993211;28;20034;-75
2022/11/01 12:24:33;;;;;;;3.42;1.08;;;;;;;25.53;64.38;99521.47;4978767;28;20026;-75
2022/11/01 12:27:09;;;;;;;5.10;1.38;;;;;;;26.60;60.53;99534.34;4990102;28;20036;-74
2022/11/01 12:29:41;;;;;;;4.03;0.90;;;;;;;27.25;59.09;99518.44;4994178;28;20041;-75
2022/11/01 12:32:55;;;;;;;2.60;0.90;;;;;;;28.70;61.04;99530.84;4975607;28;20035;-73
2022/11/01 12:35:29;;;;;;;6.47;1.55;;;;;;;28.80;52.34;99517.13;4973203;28;20102;-74
2022/11/01 12:38:00;;;;;;;5.65;1.23;;;;;;;28.66;58.29;99520.81;4975940;28;20019;-74
2022/11/01 12:40:34;;;;;;;5.82;1.50;;;;;;;28.47;55.05;99510.88;4969429;28;20054;-76
2022/11/01 12:43:13;;;;;;;4.35;1.05;;;;;;;28.08;57.46;99539.97;4992805;28;20026;-75
2022/11/01 12:46:15;;;;;;;7.55;1.38;;;;;;;28.24;56.03;99509.41;4978538;28;20045;-75
2022/11/01 12:48:49;;;;;;;2.53;0.75;;;;;;;28.17;56.72;99512.25;4933193;28;20030;-74
2022/11/01 12:51:21;;;;;;;5.45;1.63;;;;;;;28.41;55.16;99523.75;4975918;28;20034;-76
2022/11/01 12:53:59;;;;;;;9.18;1.15;;;;;;;28.82;54.11;99537.19;4978083;28;20037;-74
2022/11/01 12:56:36;;;;;;;6.47;1.08;;;;;;;29.35;56.49;99524.75;4972168;28;20027;-75
2022/11/01 12:59:11;;;;;;;4.00;0.80;;;;;;;29.25;48.15;99517.19;4976201;28;20036;-75
2022/11/01 13:01:55;;;;;;;3.75;0.80;;;;;;;28.60;53.10;99509.19;4978078;28;20031;-74
2022/11/01 13:04:50;;;;;;;7.93;0.95;;;;;;;28.85;53.88;99520.28;4977361;28;20029;-74
2022/11/01 13:07:53;;;;;;;4.85;1.02;;;;;;;28.98;53.75;99517.00;4998687;28;20540;-74
2022/11/01 13:10:20;;;;;;;9.20;1.75;;;;;;;27.68;48.51;99511.97;4972995;28;20229;-75
2022/11/01 13:13:17;;;;;;;6.65;1.23;;;;;;;25.82;54.34;99494.44;4978076;28;20033;-74
2022/11/01 13:15:58;;;;;;;10.15;1.65;;;;;;;22.98;60.57;99500.41;4977744;28;20424;-75
2022/11/01 13:18:26;;;;;;;9.85;1.50;;;;;;;23.80;62.71;99478.56;4997882;28;20121;-74
2022/11/01 13:21:06;;;;;;;15.48;1.90;;;;;;;25.75;59.66;99478.38;4993072;28;20053;-74
2022/11/01 13:24:00;;;;;;;6.55;1.33;;;;;;;26.99;53.04;99506.41;4988851;28;20027;-73